Time;durP1;ratioP1;P1;durP2;ratioP2;P2;SDS_P1;SDS_P2;PMS_P1;PMS_P2;Temp;Humidity;BMP_temperature;BMP_pressure;BME280_temperature;BME280_humidity;BME280_pressure;Samples;Min_cycle;Max_cycle;Signal;HPM_P1;HPM_P2
2022/09/11 00:00:46;;;;;;;3.95;3.22;;;16.30;99.90;;;;;;5072504;28;20158;-44
2022/09/11 00:03:11;;;;;;;9.57;3.08;;;16.30;99.90;;;;;;5072182;28;20111;-44
2022/09/11 00:05:42;;;;;;;3.28;2.90;;;16.20;99.90;;;;;;5072265;28;20108;-43
2022/09/11 00:08:10;;;;;;;4.93;3.20;;;16.20;99.90;;;;;;5072100;28;20043;-46
2022/09/11 00:10:39;;;;;;;3.45;3.20;;;16.20;99.90;;;;;;5072231;28;20430;-44
2022/09/11 00:13:06;;;;;;;4.82;2.78;;;16.20;99.90;;;;;;5071769;28;20111;-43
2022/09/11 00:15:39;;;;;;;7.25;4.25;;;16.10;99.90;;;;;;5072081;28;20531;-43
2022/09/11 00:18:06;;;;;;;3.58;3.28;;;16.10;99.90;;;;;;5072018;28;20032;-47
2022/09/11 00:20:32;;;;;;;4.35;3.40;;;16.10;99.90;;;;;;5072030;28;20016;-45
2022/09/11 00:23:03;;;;;;;3.38;3.15;;;16.10;99.90;;;;;;5054115;28;20029;-46
2022/09/11 00:25:34;;;;;;;6.85;3.50;;;16.10;99.90;;;;;;5072246;28;20396;-44
2022/09/11 00:28:00;;;;;;;5.63;4.22;;;16.10;99.90;;;;;;5072271;28;20060;-45
2022/09/11 00:30:26;;;;;;;8.20;3.83;;;16.10;99.90;;;;;;5072245;28;20499;-46
2022/09/11 00:32:52;;;;;;;4.25;3.85;;;16.10;99.90;;;;;;5071017;28;20392;-49
2022/09/11 00:35:17;;;;;;;5.35;3.47;;;16.10;99.90;;;;;;5053980;28;20020;-46
2022/09/11 00:37:43;;;;;;;6.53;4.10;;;16.10;99.90;;;;;;5072358;28;20116;-47
2022/09/11 00:40:09;;;;;;;6.70;4.20;;;16.10;99.90;;;;;;5072012;28;20473;-48
2022/09/11 00:42:34;;;;;;;4.32;4.00;;;16.00;99.90;;;;;;5072164;28;20108;-47
2022/09/11 00:45:05;;;;;;;4.78;4.32;;;16.00;99.90;;;;;;5071818;28;20803;-43
2022/09/11 00:47:32;;;;;;;5.00;4.57;;;16.00;99.90;;;;;;5072270;28;20031;-45
2022/09/11 00:50:07;;;;;;;5.40;4.55;;;16.00;99.90;;;;;;5071714;28;20020;-44
2022/09/11 00:52:37;;;;;;;5.10;4.63;;;16.00;99.90;;;;;;5071484;28;20072;-47
2022/09/11 00:55:10;;;;;;;10.57;5.00;;;16.00;99.90;;;;;;5071623;28;20041;-47
2022/09/11 00:57:50;;;;;;;5.32;4.78;;;16.00;99.90;;;;;;5071265;28;20020;-47
2022/09/11 01:00:16;;;;;;;7.95;5.28;;;16.00;99.90;;;;;;5071665;28;20531;-42
2022/09/11 01:02:45;;;;;;;5.78;4.90;;;16.00;99.90;;;;;;5071236;28;20028;-45
2022/09/11 01:05:11;;;;;;;8.32;6.00;;;16.00;99.90;;;;;;5071306;28;20036;-43
2022/09/11 01:07:38;;;;;;;5.95;5.13;;;16.00;99.90;;;;;;5071639;28;20495;-45
2022/09/11 01:10:05;;;;;;;5.65;5.25;;;16.10;99.90;;;;;;5071302;28;20060;-46
2022/09/11 01:12:56;;;;;;;6.38;5.22;;;16.10;99.90;;;;;;5071459;28;20020;-46
2022/09/11 01:15:53;;;;;;;9.18;6.10;;;16.10;99.90;;;;;;5071467;28;20032;-46
2022/09/11 01:18:38;;;;;;;7.00;6.30;;;16.10;99.90;;;;;;5071385;28;20020;-48
2022/09/11 01:21:32;;;;;;;7.97;6.43;;;16.10;99.90;;;;;;5071476;28;20036;-46
2022/09/11 01:24:18;;;;;;;7.57;6.80;;;16.20;99.90;;;;;;5071364;28;20021;-50
2022/09/11 01:27:18;;;;;;;7.63;6.93;;;16.10;99.90;;;;;;5071417;28;20021;-49
2022/09/11 01:29:54;;;;;;;12.65;7.53;;;16.10;99.90;;;;;;5071365;28;20028;-44
2022/09/11 01:32:33;;;;;;;9.02;8.20;;;16.20;99.90;;;;;;5071043;28;20480;-44
2022/09/11 01:35:04;;;;;;;10.25;8.52;;;16.20;99.90;;;;;;5071077;28;20025;-47
2022/09/11 01:37:54;;;;;;;8.90;8.20;;;16.20;99.90;;;;;;5071388;28;20103;-45
2022/09/11 01:40:25;;;;;;;10.65;9.45;;;16.20;99.90;;;;;;5071295;28;20025;-45
2022/09/11 01:42:56;;;;;;;10.57;9.57;;;16.20;99.90;;;;;;5071034;28;20036;-45
2022/09/11 01:45:24;;;;;;;10.60;9.68;;;16.10;99.90;;;;;;5074037;28;20497;-43
2022/09/11 01:47:52;;;;;;;14.48;10.75;;;16.20;99.90;;;;;;5075092;28;20012;-47
2022/09/11 01:50:18;;;;;;;12.18;10.93;;;16.30;99.90;;;;;;5074746;28;20097;-45
2022/09/11 01:52:52;;;;;;;11.68;10.40;;;16.40;99.90;;;;;;5056561;28;20028;-45
2022/09/11 01:55:24;;;;;;;16.77;11.50;;;16.40;99.90;;;;;;5074767;28;20024;-44
2022/09/11 01:57:56;;;;;;;13.63;11.10;;;16.40;99.90;;;;;;5056318;28;20048;-46
2022/09/11 02:00:22;;;;;;;16.73;12.57;;;16.40;99.90;;;;;;5074784;28;20021;-43
2022/09/11 02:02:54;;;;;;;12.75;11.45;;;16.30;99.90;;;;;;5056340;28;20078;-46
2022/09/11 02:05:39;;;;;;;14.55;12.30;;;16.30;99.90;;;;;;5074627;28;20325;-43
2022/09/11 02:08:12;;;;;;;13.50;12.10;;;16.20;99.90;;;;;;5074444;28;20055;-47
2022/09/11 02:10:50;;;;;;;15.32;12.48;;;16.10;99.90;;;;;;5074318;28;20060;-42
2022/09/11 02:13:44;;;;;;;12.30;11.00;;;16.10;99.90;;;;;;5073984;28;20021;-46
2022/09/11 02:16:34;;;;;;;12.80;11.60;;;16.00;99.90;;;;;;5074261;28;20457;-46
2022/09/11 02:19:05;;;;;;;13.65;11.23;;;16.00;99.90;;;;;;5074293;28;20021;-49
2022/09/11 02:21:32;;;;;;;12.35;11.20;;;15.90;99.90;;;;;;5056447;28;20039;-44
2022/09/11 02:23:58;;;;;;;12.85;11.60;;;15.90;99.90;;;;;;5056222;28;20596;-46
2022/09/11 02:26:26;;;;;;;14.40;11.70;;;15.80;99.90;;;;;;5056314;28;20127;-46
2022/09/11 02:28:53;;;;;;;12.70;11.50;;;15.80;99.90;;;;;;5074215;28;20092;-46
2022/09/11 02:31:19;;;;;;;12.50;11.40;;;15.80;99.90;;;;;;5074213;28;20029;-46
2022/09/11 02:33:46;;;;;;;12.55;11.40;;;15.70;99.90;;;;;;5074076;28;20025;-46
2022/09/11 02:36:21;;;;;;;12.35;10.65;;;15.80;99.90;;;;;;5074091;28;20510;-42
2022/09/11 02:39:30;;;;;;;12.70;11.50;;;15.80;99.90;;;;;;5073923;28;20036;-48
2022/09/11 02:42:16;;;;;;;13.43;12.05;;;15.70;99.90;;;;;;4994926;28;20065;-44
2022/09/11 02:44:50;;;;;;;;;;;15.70;99.90;;;;;;5029155;28;20068;-46
2022/09/11 02:47:57;;;;;;;14.63;13.23;;;15.70;99.90;;;;;;5073677;28;20375;-46
2022/09/11 02:50:55;;;;;;;15.60;13.95;;;15.80;99.90;;;;;;5073626;28;20458;-44
2022/09/11 02:53:48;;;;;;;14.73;13.20;;;15.80;99.90;;;;;;5073430;28;20032;-44
2022/09/11 02:56:23;;;;;;;16.38;14.43;;;15.90;99.90;;;;;;5072961;28;20020;-46
2022/09/11 02:58:56;;;;;;;15.15;13.55;;;15.90;99.90;;;;;;5073191;28;20028;-41
2022/09/11 03:01:22;;;;;;;17.63;15.10;;;16.10;99.90;;;;;;5073518;28;20036;-43
2022/09/11 03:03:48;;;;;;;16.77;15.05;;;16.00;99.90;;;;;;5073272;28;20473;-42
2022/09/11 03:06:19;;;;;;;18.55;15.48;;;16.00;99.90;;;;;;5073895;28;20056;-43
2022/09/11 03:08:44;;;;;;;18.48;15.57;;;16.00;99.90;;;;;;5074055;28;20483;-44
2022/09/11 03:11:12;;;;;;;20.45;16.45;;;15.90;99.90;;;;;;5073116;28;20035;-43
2022/09/11 03:13:38;;;;;;;18.75;16.75;;;15.90;99.90;;;;;;5072927;28;20103;-46
2022/09/11 03:16:04;;;;;;;19.52;17.48;;;15.90;99.90;;;;;;5073154;28;20303;-43
2022/09/11 03:18:30;;;;;;;25.55;18.70;;;16.00;99.90;;;;;;5073323;28;20039;-43
2022/09/11 03:20:56;;;;;;;18.80;16.60;;;16.00;99.90;;;;;;5055190;28;20403;-43
2022/09/11 03:23:21;;;;;;;17.70;16.00;;;16.10;99.90;;;;;;5072794;28;20103;-44
2022/09/11 03:25:47;;;;;;;17.70;15.80;;;16.10;99.90;;;;;;5055155;28;20025;-43
2022/09/11 03:28:13;;;;;;;18.23;16.42;;;16.10;99.90;;;;;;5072853;28;20465;-45
2022/09/11 03:30:40;;;;;;;18.40;16.50;;;16.10;99.90;;;;;;5072884;28;20070;-46
2022/09/11 03:33:06;;;;;;;21.30;18.38;;;16.10;99.90;;;;;;5072493;28;20044;-43
2022/09/11 03:35:32;;;;;;;18.33;16.13;;;16.10;99.90;;;;;;5073292;28;20032;-45
2022/09/11 03:37:57;;;;;;;18.67;16.65;;;16.10;99.90;;;;;;5072783;28;20024;-45
2022/09/11 03:40:23;;;;;;;20.17;17.45;;;16.10;99.90;;;;;;5072832;28;20036;-43
2022/09/11 03:42:48;;;;;;;22.58;18.27;;;16.10;99.90;;;;;;5072324;28;20024;-45
2022/09/11 03:45:14;;;;;;;21.77;19.48;;;16.10;99.90;;;;;;5054511;28;20027;-45
2022/09/11 03:47:40;;;;;;;20.08;17.98;;;16.00;99.90;;;;;;5054435;28;20028;-43
2022/09/11 03:50:07;;;;;;;20.98;16.75;;;16.10;99.90;;;;;;5072484;28;20032;-45
2022/09/11 03:52:33;;;;;;;18.60;16.70;;;16.00;99.90;;;;;;5072209;28;20094;-45
2022/09/11 03:54:59;;;;;;;20.13;17.83;;;16.10;99.90;;;;;;5072477;28;20569;-45
2022/09/11 03:57:25;;;;;;;19.75;17.27;;;16.10;99.90;;;;;;5072233;28;20052;-47
2022/09/11 03:59:50;;;;;;;18.95;17.02;;;16.10;99.90;;;;;;5072017;28;20460;-47
2022/09/11 04:02:17;;;;;;;20.35;16.17;;;16.10;99.90;;;;;;5053911;28;20121;-43
2022/09/11 04:04:42;;;;;;;18.40;16.40;;;16.10;99.90;;;;;;5072392;28;20029;-45
2022/09/11 04:07:08;;;;;;;20.02;17.88;;;16.10;99.90;;;;;;5071967;28;20112;-46
2022/09/11 04:09:33;;;;;;;18.70;16.00;;;16.10;99.90;;;;;;5072180;28;20483;-45
2022/09/11 04:11:59;;;;;;;20.65;18.45;;;16.10;99.90;;;;;;5072008;28;20028;-43
2022/09/11 04:14:24;;;;;;;19.02;17.02;;;16.10;99.90;;;;;;5093718;22;20048;-44
2022/09/11 04:16:50;;;;;;;19.70;17.48;;;16.10;99.90;;;;;;5073888;28;20538;-45
2022/09/11 04:19:17;;;;;;;20.00;17.88;;;16.10;99.90;;;;;;5071953;28;20083;-44
2022/09/11 04:21:43;;;;;;;25.63;19.85;;;16.00;99.90;;;;;;5071824;28;20074;-41
2022/09/11 04:24:09;;;;;;;24.02;19.80;;;16.00;99.90;;;;;;5071365;28;20403;-45
2022/09/11 04:26:34;;;;;;;25.42;20.52;;;16.10;99.90;;;;;;5071531;28;20067;-47
2022/09/11 04:29:00;;;;;;;20.30;18.27;;;16.10;99.90;;;;;;5053717;28;20048;-45
2022/09/11 04:31:28;;;;;;;20.40;18.08;;;16.10;99.90;;;;;;5071763;28;20107;-48
2022/09/11 04:33:54;;;;;;;20.67;18.42;;;16.10;99.90;;;;;;5071240;28;20020;-39
2022/09/11 04:36:21;;;;;;;21.45;19.17;;;16.10;99.90;;;;;;5071628;28;20407;-46
2022/09/11 04:38:47;;;;;;;21.58;19.25;;;16.10;99.90;;;;;;5071479;28;20027;-48
2022/09/11 04:41:15;;;;;;;20.70;17.55;;;16.10;99.90;;;;;;5071470;28;20029;-45
2022/09/11 04:43:41;;;;;;;23.00;20.33;;;16.00;99.90;;;;;;5071168;28;20098;-45
2022/09/11 04:46:17;;;;;;;23.55;19.58;;;16.00;99.90;;;;;;5071463;28;20680;-48
2022/09/11 04:48:51;;;;;;;21.25;18.27;;;16.00;99.90;;;;;;5071317;28;20484;-46
2022/09/11 04:51:24;;;;;;;22.73;19.15;;;16.00;99.90;;;;;;5053413;28;20024;-46
2022/09/11 04:53:52;;;;;;;22.70;19.08;;;16.00;99.90;;;;;;5071008;28;20020;-46
2022/09/11 04:56:20;;;;;;;21.38;19.17;;;15.90;99.90;;;;;;5071394;28;20101;-44
2022/09/11 04:58:51;;;;;;;22.98;19.73;;;15.90;99.90;;;;;;5071016;28;20021;-45
2022/09/11 05:01:16;;;;;;;22.90;20.50;;;15.80;99.90;;;;;;5071347;28;20033;-45
2022/09/11 05:03:42;;;;;;;23.90;19.75;;;15.80;99.90;;;;;;5071237;28;20017;-44
2022/09/11 05:06:10;;;;;;;21.77;19.23;;;15.80;99.90;;;;;;5071749;28;20017;-47
2022/09/11 05:08:36;;;;;;;24.17;21.02;;;15.80;99.90;;;;;;5071487;28;20521;-49
2022/09/11 05:11:04;;;;;;;21.33;19.13;;;15.80;99.90;;;;;;5071368;28;20093;-47
2022/09/11 05:13:30;;;;;;;27.23;20.98;;;15.70;99.90;;;;;;5070940;28;20023;-45
2022/09/11 05:16:01;;;;;;;23.55;19.95;;;15.70;99.90;;;;;;5071163;28;20594;-46
2022/09/11 05:18:26;;;;;;;25.38;20.63;;;15.70;99.90;;;;;;5071199;28;20043;-43
2022/09/11 05:21:03;;;;;;;25.50;22.40;;;15.70;99.90;;;;;;5075301;28;20111;-45
2022/09/11 05:23:30;;;;;;;21.27;19.08;;;15.70;99.90;;;;;;5074877;28;20037;-47
2022/09/11 05:25:57;;;;;;;21.85;19.65;;;15.70;99.90;;;;;;5075027;28;20032;-45
2022/09/11 05:28:24;;;;;;;23.50;18.98;;;15.70;99.90;;;;;;5074986;28;20104;-45
2022/09/11 05:30:49;;;;;;;23.15;19.40;;;15.60;99.90;;;;;;5056987;28;20108;-42
2022/09/11 05:33:15;;;;;;;23.88;20.95;;;15.60;99.90;;;;;;5074466;28;20048;-45
2022/09/11 05:35:40;;;;;;;26.13;20.52;;;15.60;99.90;;;;;;5074976;28;20027;-45
2022/09/11 05:38:09;;;;;;;28.60;21.50;;;15.60;99.90;;;;;;5075081;28;20135;-44
2022/09/11 05:40:35;;;;;;;22.15;19.23;;;15.50;99.90;;;;;;5074841;28;20029;-43
2022/09/11 05:43:01;;;;;;;21.73;18.85;;;15.50;99.90;;;;;;5074600;28;20104;-44
2022/09/11 05:45:26;;;;;;;27.77;22.48;;;15.50;99.90;;;;;;5074460;28;20033;-45
2022/09/11 05:47:52;;;;;;;25.70;20.90;;;15.50;99.90;;;;;;5056652;28;20385;-47
2022/09/11 05:50:20;;;;;;;28.40;22.55;;;15.50;99.90;;;;;;5074488;28;20097;-45
2022/09/11 05:52:46;;;;;;;28.13;23.85;;;15.60;99.90;;;;;;5074153;28;20503;-45
2022/09/11 05:55:11;;;;;;;29.95;23.33;;;15.60;99.90;;;;;;5074531;28;20055;-44
2022/09/11 05:57:37;;;;;;;28.10;23.02;;;15.60;99.90;;;;;;5056035;28;20059;-43
2022/09/11 06:00:04;;;;;;;32.45;23.70;;;15.70;99.90;;;;;;5074549;28;20078;-45
2022/09/11 06:02:29;;;;;;;27.20;22.58;;;15.70;99.90;;;;;;5073994;28;20020;-43
2022/09/11 06:04:55;;;;;;;30.60;23.30;;;15.80;99.90;;;;;;5074245;28;20039;-46
2022/09/11 06:07:21;;;;;;;25.30;21.38;;;15.80;99.90;;;;;;5074189;28;20035;-45
2022/09/11 06:09:46;;;;;;;26.52;22.33;;;15.90;99.90;;;;;;5074184;28;20395;-43
2022/09/11 06:12:12;;;;;;;26.20;21.05;;;16.20;99.90;;;;;;5073771;28;20036;-45
2022/09/11 06:14:37;;;;;;;24.67;20.15;;;16.30;99.90;;;;;;5073867;28;20093;-43
2022/09/11 06:17:04;;;;;;;21.67;19.20;;;16.50;99.90;;;;;;5056092;28;20501;-46
2022/09/11 06:19:29;;;;;;;21.40;17.30;;;16.60;99.90;;;;;;5073793;28;20025;-44
2022/09/11 06:21:55;;;;;;;18.70;16.67;;;16.80;99.90;;;;;;5055854;28;20039;-45
2022/09/11 06:24:20;;;;;;;18.42;14.90;;;17.00;99.90;;;;;;5073883;28;20436;-49
2022/09/11 06:26:46;;;;;;;16.73;15.02;;;17.30;99.90;;;;;;5073798;28;20036;-43
2022/09/11 06:29:13;;;;;;;15.50;13.90;;;17.70;99.90;;;;;;5073861;28;20024;-45
2022/09/11 06:31:40;;;;;;;15.43;13.35;;;18.20;99.90;;;;;;5073340;28;20028;-43
2022/09/11 06:34:05;;;;;;;13.85;12.45;;;18.60;99.90;;;;;;5073911;28;20105;-48
2022/09/11 06:36:31;;;;;;;18.35;12.63;;;19.20;99.90;;;;;;5073871;28;20058;-44
2022/09/11 06:38:57;;;;;;;13.52;11.45;;;19.80;99.90;;;;;;5073567;28;20507;-44
2022/09/11 06:41:24;;;;;;;11.05;9.95;;;20.30;99.90;;;;;;5073744;28;20028;-49
2022/09/11 06:43:51;;;;;;;11.52;10.40;;;20.60;99.90;;;;;;5073329;28;20024;-43
2022/09/11 06:46:19;;;;;;;13.10;11.23;;;21.00;99.90;;;;;;5073420;28;20025;-48
2022/09/11 06:48:47;;;;;;;12.63;11.30;;;21.60;99.90;;;;;;5073732;28;20020;-48
2022/09/11 06:51:18;;;;;;;13.13;9.65;;;22.40;99.90;;;;;;5073562;28;20394;-45
2022/09/11 06:53:46;;;;;;;11.98;10.43;;;22.90;99.90;;;;;;5073605;28;20486;-47
2022/09/11 06:56:15;;;;;;;11.15;10.05;;;23.10;99.90;;;;;;5073331;28;20028;-45
2022/09/11 06:58:41;;;;;;;11.75;9.95;;;23.30;99.90;;;;;;5072883;28;20103;-44
2022/09/11 07:01:09;;;;;;;12.40;9.70;;;23.50;99.90;;;;;;5073226;28;20095;-47
2022/09/11 07:03:36;;;;;;;10.48;7.72;;;23.60;99.90;;;;;;5072690;28;20090;-46
2022/09/11 07:06:02;;;;;;;9.32;8.43;;;23.60;99.90;;;;;;5073028;28;20459;-48
2022/09/11 07:08:28;;;;;;;9.85;8.50;;;24.10;99.90;;;;;;5073097;28;20028;-46
2022/09/11 07:10:53;;;;;;;9.80;8.77;;;24.70;99.90;;;;;;5073084;28;20021;-44
2022/09/11 07:13:19;;;;;;;11.50;9.77;;;25.20;99.90;;;;;;5072776;28;20081;-44
2022/09/11 07:15:48;;;;;;;13.63;9.40;;;25.50;99.00;;;;;;5072687;28;20033;-46
2022/09/11 07:18:13;;;;;;;11.35;9.00;;;25.40;99.40;;;;;;5072877;28;20024;-46
2022/09/11 07:20:40;;;;;;;8.70;7.90;;;25.70;99.20;;;;;;5072831;28;20035;-44
2022/09/11 07:23:08;;;;;;;10.57;8.02;;;25.80;98.90;;;;;;5072546;28;20024;-46
2022/09/11 07:25:37;;;;;;;9.55;8.52;;;26.00;98.10;;;;;;5072667;28;20392;-45
2022/09/11 07:28:03;;;;;;;11.95;9.57;;;26.50;97.90;;;;;;5072744;28;20021;-48
2022/09/11 07:30:28;;;;;;;10.75;7.40;;;26.90;96.90;;;;;;5072520;28;20027;-45
2022/09/11 07:32:54;;;;;;;8.25;7.45;;;26.90;96.50;;;;;;5072114;28;20020;-43
2022/09/11 07:35:20;;;;;;;8.75;7.20;;;27.20;96.20;;;;;;5072363;28;20013;-46
2022/09/11 07:37:47;;;;;;;7.72;7.03;;;27.10;95.60;;;;;;5072462;28;20434;-46
2022/09/11 07:40:13;;;;;;;10.85;8.30;;;26.20;96.50;;;;;;5072424;28;20021;-49
2022/09/11 07:42:39;;;;;;;11.23;7.93;;;25.00;98.10;;;;;;5071797;28;20026;-38
2022/09/11 07:45:05;;;;;;;8.85;8.00;;;24.10;99.50;;;;;;5072310;28;20095;-46
2022/09/11 07:47:32;;;;;;;9.43;8.45;;;23.30;99.90;;;;;;5072212;28;20025;-48
2022/09/11 07:49:58;;;;;;;15.48;9.32;;;22.80;99.90;;;;;;5072189;28;20418;-44
2022/09/11 07:52:23;;;;;;;11.07;8.95;;;22.60;99.90;;;;;;5072138;28;20020;-48
2022/09/11 07:54:49;;;;;;;10.98;9.88;;;22.30;99.90;;;;;;5072061;28;20036;-46
2022/09/11 07:57:15;;;;;;;11.70;10.35;;;21.80;99.90;;;;;;5072095;28;20078;-46
2022/09/11 07:59:40;;;;;;;10.48;9.23;;;21.40;99.90;;;;;;5071448;28;20476;-45
2022/09/11 08:02:07;;;;;;;13.18;10.70;;;21.10;99.90;;;;;;5071982;28;20024;-44
2022/09/11 08:04:33;;;;;;;11.02;9.88;;;20.90;99.90;;;;;;5071941;28;20392;-46
2022/09/11 08:06:58;;;;;;;11.52;10.27;;;20.70;99.90;;;;;;5071972;28;20029;-49
2022/09/11 08:09:25;;;;;;;10.30;9.30;;;20.60;99.90;;;;;;5071864;28;20480;-43
2022/09/11 08:11:52;;;;;;;13.32;11.45;;;20.50;99.90;;;;;;5071606;28;20534;-45
2022/09/11 08:14:17;;;;;;;15.43;12.05;;;20.50;99.90;;;;;;5071381;28;20098;-46
2022/09/11 08:16:43;;;;;;;14.25;12.75;;;20.50;99.90;;;;;;5071895;28;20052;-47
2022/09/11 08:19:18;;;;;;;17.00;13.32;;;20.40;99.90;;;;;;5071519;28;20641;-46
2022/09/11 08:21:43;;;;;;;15.87;14.17;;;20.30;99.90;;;;;;5072074;28;20150;-48
2022/09/11 08:24:11;;;;;;;15.35;12.95;;;20.20;99.90;;;;;;5053615;28;20294;-47
2022/09/11 08:26:37;;;;;;;17.92;13.63;;;20.00;99.90;;;;;;5071447;28;20028;-45
2022/09/11 08:29:02;;;;;;;17.33;14.70;;;20.00;99.90;;;;;;5071566;28;20016;-40
2022/09/11 08:31:28;;;;;;;16.90;13.75;;;20.10;99.90;;;;;;5071533;28;20024;-44
2022/09/11 08:33:54;;;;;;;18.38;14.07;;;20.30;99.90;;;;;;5071422;28;20017;-47
2022/09/11 08:36:20;;;;;;;15.75;13.45;;;20.50;99.90;;;;;;5071537;28;20062;-46
2022/09/11 08:38:46;;;;;;;17.95;13.02;;;20.70;99.90;;;;;;5071611;28;20033;-40
2022/09/11 08:41:18;;;;;;;14.00;12.35;;;21.30;99.90;;;;;;5071440;28;20514;-45
2022/09/11 08:43:55;;;;;;;17.33;12.88;;;22.10;99.90;;;;;;5071343;28;20029;-44
2022/09/11 08:46:25;;;;;;;15.82;13.20;;;22.90;99.90;;;;;;5071533;28;20024;-45
2022/09/11 08:49:16;;;;;;;17.63;14.00;;;23.90;99.90;;;;;;5071691;28;20021;-48
2022/09/11 08:51:43;;;;;;;14.90;13.18;;;24.80;99.90;;;;;;5071590;28;20074;-47
2022/09/11 08:54:26;;;;;;;17.52;13.68;;;25.80;99.00;;;;;;5071017;28;20445;-45
2022/09/11 08:57:04;;;;;;;12.48;10.82;;;26.20;97.50;;;;;;5053631;28;20028;-42
2022/09/11 08:59:57;;;;;;;13.70;11.07;;;26.70;96.60;;;;;;5071373;28;20052;-45
2022/09/11 09:03:04;;;;;;;15.80;10.50;;;27.00;96.40;;;;;;5071731;28;20025;-44
2022/09/11 09:05:43;;;;;;;11.68;10.48;;;26.70;96.40;;;;;;5071430;28;20028;-44
2022/09/11 09:08:08;;;;;;;12.90;11.50;;;26.30;96.50;;;;;;5071919;28;20037;-44
2022/09/11 09:10:45;;;;;;;16.33;12.88;;;25.40;97.20;;;;;;5071514;28;20020;-45
2022/09/11 09:13:34;;;;;;;16.75;13.75;;;24.40;98.30;;;;;;5071120;28;20044;-44
2022/09/11 09:16:23;;;;;;;20.10;14.20;;;23.40;99.80;;;;;;5053361;28;20483;-45
2022/09/11 09:19:03;;;;;;;16.05;13.77;;;22.50;99.90;;;;;;5072036;28;20028;-42
2022/09/11 09:21:48;;;;;;;15.43;12.77;;;22.30;99.90;;;;;;5072923;28;20050;-44
2022/09/11 09:24:18;;;;;;;17.50;13.57;;;22.10;99.90;;;;;;5072560;28;20119;-43
2022/09/11 09:26:51;;;;;;;18.65;14.60;;;22.00;99.90;;;;;;5071780;28;20274;-44
2022/09/11 09:29:21;;;;;;;14.90;12.80;;;21.60;99.90;;;;;;5071534;28;20028;-44
2022/09/11 09:31:56;;;;;;;16.73;13.75;;;21.10;99.90;;;;;;5055069;28;20016;-43
2022/09/11 09:34:26;;;;;;;19.45;14.95;;;20.80;99.90;;;;;;5071354;28;20020;-45
2022/09/11 09:37:03;;;;;;;22.98;15.45;;;20.80;99.90;;;;;;5053038;28;20025;-40
2022/09/11 09:39:30;;;;;;;13.15;11.75;;;20.70;99.90;;;;;;5071014;28;20391;-44
2022/09/11 09:42:11;;;;;;;14.45;10.10;;;20.70;99.90;;;;;;5070971;28;20037;-41
2022/09/11 09:44:42;;;;;;;14.00;10.43;;;20.60;99.90;;;;;;5071038;28;20132;-44
2022/09/11 09:47:11;;;;;;;11.13;9.05;;;20.40;99.90;;;;;;5070901;28;20024;-40
2022/09/11 09:49:37;;;;;;;14.95;10.02;;;20.30;99.90;;;;;;5070806;28;20052;-43
2022/09/11 09:52:24;;;;;;;13.77;10.98;;;20.20;99.90;;;;;;5070793;28;20052;-46
2022/09/11 09:54:57;;;;;;;14.27;11.73;;;20.20;99.90;;;;;;5070938;28;20104;-46
2022/09/11 09:57:31;;;;;;;17.45;13.18;;;20.30;99.90;;;;;;5071165;28;20020;-45
2022/09/11 10:00:10;;;;;;;15.65;11.60;;;20.40;99.90;;;;;;5070715;28;20024;-44
2022/09/11 10:02:42;;;;;;;12.35;10.02;;;20.50;99.90;;;;;;5070461;28;20027;-46
2022/09/11 10:05:46;;;;;;;14.35;10.07;;;21.00;99.90;;;;;;5071790;28;20025;-38
2022/09/11 10:08:28;;;;;;;10.63;8.88;;;21.60;99.90;;;;;;5055695;28;20041;-49
2022/09/11 10:10:56;;;;;;;14.98;11.55;;;21.70;99.90;;;;;;5074426;28;20383;-43
2022/09/11 10:13:36;;;;;;;14.82;10.68;;;21.70;99.90;;;;;;5074056;28;20020;-45
2022/09/11 10:16:16;;;;;;;13.43;10.68;;;21.50;99.90;;;;;;5095480;22;20511;-44
2022/09/11 10:18:44;;;;;;;12.73;10.63;;;21.30;99.90;;;;;;5074267;28;20028;-43
2022/09/11 10:21:10;;;;;;;12.57;10.48;;;21.20;99.90;;;;;;5074356;28;20047;-41
2022/09/11 10:23:56;;;;;;;16.90;12.98;;;21.20;99.90;;;;;;5074474;28;20063;-46
2022/09/11 10:26:33;;;;;;;16.65;13.35;;;21.20;99.90;;;;;;5074374;28;20380;-46
2022/09/11 10:29:28;;;;;;;17.25;13.25;;;21.00;99.90;;;;;;5074674;28;20027;-42
2022/09/11 10:31:56;;;;;;;18.13;14.30;;;20.80;99.90;;;;;;5074060;28;20024;-48
2022/09/11 10:34:32;;;;;;;16.88;13.05;;;20.70;99.90;;;;;;5074091;28;20153;-49
2022/09/11 10:37:12;;;;;;;18.15;13.73;;;20.60;99.90;;;;;;5073897;28;20119;-47
2022/09/11 10:39:40;;;;;;;13.38;11.30;;;20.60;99.90;;;;;;5074032;28;20086;-47
2022/09/11 10:42:23;;;;;;;14.75;12.07;;;20.50;99.90;;;;;;5073731;28;20060;-46
2022/09/11 10:44:51;;;;;;;15.52;12.18;;;20.50;99.90;;;;;;5073884;28;20020;-45
2022/09/11 10:47:20;;;;;;;11.35;10.07;;;20.50;99.90;;;;;;5073721;28;20020;-47
2022/09/11 10:49:47;;;;;;;15.85;11.35;;;20.70;99.90;;;;;;5055845;28;20459;-46
2022/09/11 10:52:13;;;;;;;13.68;10.68;;;20.90;99.90;;;;;;5073428;28;20040;-49
2022/09/11 10:54:43;;;;;;;12.80;10.32;;;21.00;99.90;;;;;;5073667;28;20028;-44
2022/09/11 10:57:28;;;;;;;10.73;9.45;;;21.10;99.90;;;;;;5073651;28;20016;-45
2022/09/11 11:00:20;;;;;;;13.60;9.60;;;21.10;99.90;;;;;;5073590;28;20050;-45
2022/09/11 11:02:49;;;;;;;11.82;7.50;;;21.10;99.90;;;;;;5073242;28;20067;-49
2022/09/11 11:05:22;;;;;;;9.05;7.80;;;21.20;99.90;;;;;;5073601;28;20025;-47
2022/09/11 11:08:11;;;;;;;10.77;8.35;;;21.30;99.90;;;;;;5073579;28;20385;-45
2022/09/11 11:10:41;;;;;;;8.60;6.75;;;21.40;99.90;;;;;;5074092;28;20021;-45
2022/09/11 11:13:19;;;;;;;10.13;7.60;;;21.60;99.90;;;;;;5073309;28;20107;-41
2022/09/11 11:16:16;;;;;;;10.65;6.82;;;21.70;99.90;;;;;;5073552;28;20119;-46
2022/09/11 11:19:19;;;;;;;6.72;6.10;;;21.80;99.90;;;;;;5073227;28;20024;-46
2022/09/11 11:22:02;;;;;;;12.32;6.97;;;21.70;99.90;;;;;;5073347;28;20395;-41
2022/09/11 11:25:00;;;;;;;7.47;6.03;;;21.70;99.90;;;;;;5073094;28;20400;-50
2022/09/11 11:28:01;;;;;;;8.45;7.25;;;21.50;99.90;;;;;;5072989;28;20028;-47
2022/09/11 11:30:39;;;;;;;13.07;6.43;;;21.40;99.90;;;;;;5055825;28;20055;-45
2022/09/11 11:33:30;;;;;;;7.30;6.20;;;21.30;99.90;;;;;;5072855;28;20020;-44
2022/09/11 11:36:14;;;;;;;9.23;6.38;;;21.20;99.90;;;;;;5072864;28;20024;-45
2022/09/11 11:38:51;;;;;;;7.43;6.60;;;21.00;99.90;;;;;;5073473;28;20055;-45
2022/09/11 11:41:29;;;;;;;7.15;6.20;;;20.90;99.90;;;;;;5072760;28;20072;-47
2022/09/11 11:43:56;;;;;;;7.80;6.95;;;20.80;99.90;;;;;;5055270;28;20509;-45
2022/09/11 11:46:38;;;;;;;6.75;6.05;;;20.70;99.90;;;;;;5072749;28;20056;-47
2022/09/11 11:49:09;;;;;;;7.82;6.20;;;20.60;99.90;;;;;;5072687;28;20079;-46
2022/09/11 11:51:48;;;;;;;8.65;6.45;;;20.60;99.90;;;;;;5072892;28;20013;-41
2022/09/11 11:54:36;;;;;;;7.93;6.00;;;20.60;99.90;;;;;;5072456;28;20017;-45
2022/09/11 11:57:10;;;;;;;6.15;5.43;;;20.60;99.90;;;;;;5072345;28;20029;-42
2022/09/11 11:59:44;;;;;;;7.20;6.47;;;20.60;99.90;;;;;;5071855;28;20060;-45
2022/09/11 12:02:09;;;;;;;10.63;7.13;;;20.70;99.90;;;;;;5072249;28;20036;-44
2022/09/11 12:04:43;;;;;;;7.00;5.68;;;20.80;99.90;;;;;;5072332;28;20483;-46
2022/09/11 12:07:24;;;;;;;7.03;6.33;;;20.80;99.90;;;;;;5072230;28;20032;-44
2022/09/11 12:09:53;;;;;;;6.00;5.40;;;20.80;99.90;;;;;;5072357;28;20030;-43
2022/09/11 12:12:20;;;;;;;6.57;5.97;;;20.90;99.90;;;;;;5071680;28;20025;-44
2022/09/11 12:14:53;;;;;;;9.13;7.30;;;21.00;99.90;;;;;;5072112;28;20060;-44
2022/09/11 12:17:38;;;;;;;8.90;7.07;;;21.00;99.90;;;;;;5072057;28;20024;-43
2022/09/11 12:20:10;;;;;;;6.70;6.10;;;21.00;99.90;;;;;;5072110;28;20023;-44
2022/09/11 12:22:41;;;;;;;6.68;6.03;;;21.10;99.90;;;;;;5053607;28;20492;-44
2022/09/11 12:25:21;;;;;;;8.30;6.57;;;21.20;99.90;;;;;;5072262;28;20024;-42
2022/09/11 12:27:54;;;;;;;8.68;7.80;;;21.30;99.90;;;;;;5071429;28;20044;-44
2022/09/11 12:30:23;;;;;;;9.98;7.15;;;21.50;99.90;;;;;;5071601;28;20030;-44
2022/09/11 12:32:57;;;;;;;8.63;6.97;;;21.60;99.90;;;;;;5071976;28;20020;-45
2022/09/11 12:35:44;;;;;;;7.78;6.45;;;21.70;99.90;;;;;;5072286;28;20013;-44
2022/09/11 12:38:13;;;;;;;7.15;5.70;;;21.70;99.90;;;;;;5071767;28;20044;-44
2022/09/11 12:41:06;;;;;;;9.55;6.60;;;21.70;99.90;;;;;;5071889;28;20072;-44
2022/09/11 12:43:34;;;;;;;7.10;6.03;;;21.80;99.90;;;;;;5071285;28;20036;-44
2022/09/11 12:46:01;;;;;;;6.97;5.63;;;21.90;99.90;;;;;;5071924;28;20021;-46
2022/09/11 12:48:37;;;;;;;6.40;5.50;;;21.90;99.90;;;;;;5071652;28;20016;-46
2022/09/11 12:51:04;;;;;;;6.53;5.57;;;22.00;99.90;;;;;;5071629;28;20142;-44
2022/09/11 12:53:35;;;;;;;11.82;7.78;;;21.90;99.90;;;;;;5071189;28;20020;-44
2022/09/11 12:56:05;;;;;;;7.68;6.43;;;22.00;99.90;;;;;;5071265;28;20082;-44